createdAt,value
2023-03-21T00:00:02.433Z,1001.5
2023-03-21T00:01:18.577Z,1001.5
2023-03-21T00:02:34.725Z,1001.5
2023-03-21T00:03:50.856Z,1001.5
2023-03-21T00:05:06.988Z,1001.5
2023-03-21T00:06:23.122Z,1001.5
2023-03-21T00:07:39.254Z,1001.5
2023-03-21T00:08:55.394Z,1001.5
2023-03-21T00:10:11.539Z,1001.5
2023-03-21T00:11:27.666Z,1001.5
2023-03-21T00:12:43.797Z,1001.5
2023-03-21T00:13:59.988Z,1001.5
2023-03-21T00:15:15.228Z,1001.5
2023-03-21T00:16:31.421Z,1001.5
2023-03-21T00:17:46.635Z,1001.5
2023-03-21T00:19:02.777Z,1001.5
2023-03-21T00:20:18.913Z,1001.5
2023-03-21T00:21:35.051Z,1001.5
2023-03-21T00:22:51.180Z,1001.5
2023-03-21T00:24:07.307Z,1001.4
2023-03-21T00:25:23.465Z,1001.5
2023-03-21T00:26:39.600Z,1001.5
2023-03-21T00:27:55.729Z,1001.5
2023-03-21T00:29:11.849Z,1001.4
2023-03-21T00:30:27.985Z,1001.4
2023-03-21T00:31:44.144Z,1001.4
2023-03-21T00:33:00.265Z,1001.4
2023-03-21T00:34:16.413Z,1001.4
2023-03-21T00:35:32.539Z,1001.4
2023-03-21T00:36:48.663Z,1001.3
2023-03-21T00:38:04.810Z,1001.4
2023-03-21T00:39:20.963Z,1001.3
2023-03-21T00:40:37.091Z,1001.3
2023-03-21T00:41:53.223Z,1001.3
2023-03-21T00:43:09.354Z,1001.3
2023-03-21T00:44:25.498Z,1001.3
2023-03-21T00:45:41.628Z,1001.3
2023-03-21T00:46:57.764Z,1001.3
2023-03-21T00:48:13.893Z,1001.3
2023-03-21T00:49:30.102Z,1001.3
2023-03-21T00:50:45.335Z,1001.3
2023-03-21T00:52:00.547Z,1001.3
2023-03-21T00:53:15.691Z,1001.3
2023-03-21T00:54:31.833Z,1001.3
2023-03-21T00:55:47.954Z,1001.3
2023-03-21T00:57:04.096Z,1001.2
2023-03-21T00:58:20.230Z,1001.2
2023-03-21T00:59:36.363Z,1001.2
2023-03-21T01:00:52.504Z,1001.2
2023-03-21T01:02:08.639Z,1001.2
2023-03-21T01:03:24.777Z,1001.2
2023-03-21T01:04:40.908Z,1001.2
2023-03-21T01:05:57.044Z,1001.2
2023-03-21T01:07:13.190Z,1001.2
2023-03-21T01:08:29.328Z,1001.1
2023-03-21T01:09:45.447Z,1001.1
2023-03-21T01:11:01.578Z,1001.1
2023-03-21T01:12:17.730Z,1001.1
2023-03-21T01:13:33.859Z,1001.1
2023-03-21T01:14:50.003Z,1001.1
2023-03-21T01:16:06.132Z,1001.1
2023-03-21T01:17:22.269Z,1001
2023-03-21T01:18:38.421Z,1001.1
2023-03-21T01:19:54.557Z,1001.1
2023-03-21T01:21:10.690Z,1001.1
2023-03-21T01:22:26.819Z,1001
2023-03-21T01:23:42.951Z,1001
2023-03-21T01:24:59.102Z,1001
2023-03-21T01:26:15.220Z,1001
2023-03-21T01:27:31.362Z,1001
2023-03-21T01:28:47.492Z,1001
2023-03-21T01:30:03.628Z,1001
2023-03-21T01:31:19.768Z,1001
2023-03-21T01:32:35.908Z,1001
2023-03-21T01:33:52.037Z,1001
2023-03-21T01:35:08.170Z,1001
2023-03-21T01:36:24.317Z,1001
2023-03-21T01:37:40.464Z,1001
2023-03-21T01:38:56.592Z,1001
2023-03-21T01:40:12.785Z,1001
2023-03-21T01:41:28.026Z,1001
2023-03-21T01:42:43.233Z,1001
2023-03-21T01:43:59.371Z,1001
2023-03-21T01:45:15.487Z,1001
2023-03-21T01:46:31.636Z,1001
2023-03-21T01:47:47.770Z,1001
2023-03-21T01:49:03.910Z,1001
2023-03-21T01:50:20.043Z,1001
2023-03-21T01:51:36.175Z,1001
2023-03-21T01:52:52.313Z,1001
2023-03-21T01:54:08.459Z,1001
2023-03-21T01:55:24.597Z,1001
2023-03-21T01:56:40.718Z,1001
2023-03-21T01:57:56.857Z,1000.9
2023-03-21T01:59:12.995Z,1000.9
2023-03-21T02:00:29.141Z,1000.9
2023-03-21T02:01:45.265Z,1000.9
2023-03-21T02:03:01.408Z,1000.9
2023-03-21T02:04:17.531Z,1000.9
2023-03-21T02:05:33.675Z,1000.9
2023-03-21T02:06:49.811Z,1000.9
2023-03-21T02:08:05.952Z,1000.9
2023-03-21T02:09:22.079Z,1000.9
2023-03-21T02:10:38.224Z,1000.8
2023-03-21T02:11:54.352Z,1000.9
2023-03-21T02:13:10.507Z,1000.9
2023-03-21T02:14:26.695Z,1000.8
2023-03-21T02:15:41.954Z,1000.8
2023-03-21T02:16:57.163Z,1000.8
2023-03-21T02:18:13.295Z,1000.8
2023-03-21T02:19:29.427Z,1000.8
2023-03-21T02:20:45.550Z,1000.8
2023-03-21T02:22:01.689Z,1000.7
2023-03-21T02:23:17.848Z,1000.8
2023-03-21T02:24:33.964Z,1000.8
2023-03-21T02:25:50.101Z,1000.7
2023-03-21T02:27:06.238Z,1000.7
2023-03-21T02:28:22.376Z,1000.7
2023-03-21T02:29:38.513Z,1000.7
2023-03-21T02:30:54.655Z,1000.7
2023-03-21T02:32:10.793Z,1000.7
2023-03-21T02:33:26.925Z,1000.6
2023-03-21T02:34:43.046Z,1000.6
2023-03-21T02:35:59.196Z,1000.6
2023-03-21T02:37:15.323Z,1000.6
2023-03-21T02:38:31.468Z,1000.6
2023-03-21T02:39:47.600Z,1000.6
2023-03-21T02:41:03.727Z,1000.6
2023-03-21T02:42:19.886Z,1000.6
2023-03-21T02:43:36.018Z,1000.6
2023-03-21T02:44:52.153Z,1000.5
2023-03-21T02:46:08.286Z,1000.6
2023-03-21T02:47:24.409Z,1000.6
2023-03-21T02:48:40.621Z,1000.6
2023-03-21T02:49:55.857Z,1000.6
2023-03-21T02:51:12.051Z,1000.6
2023-03-21T02:52:27.251Z,1000.6
2023-03-21T02:53:43.391Z,1000.6
2023-03-21T02:54:59.532Z,1000.6
2023-03-21T02:56:15.665Z,1000.6
2023-03-21T02:57:31.785Z,1000.5
2023-03-21T02:58:47.937Z,1000.5
2023-03-21T03:00:04.073Z,1000.5
2023-03-21T03:01:20.198Z,1000.5
2023-03-21T03:02:36.335Z,1000.5
2023-03-21T03:03:52.466Z,1000.5
2023-03-21T03:05:08.621Z,1000.5
2023-03-21T03:06:24.751Z,1000.5
2023-03-21T03:07:40.881Z,1000.5
2023-03-21T03:08:57.025Z,1000.5
2023-03-21T03:10:13.161Z,1000.5
2023-03-21T03:11:29.299Z,1000.4
2023-03-21T03:12:45.430Z,1000.5
2023-03-21T03:14:01.570Z,1000.4
2023-03-21T03:15:17.692Z,1000.5
2023-03-21T03:16:33.841Z,1000.4
2023-03-21T03:17:49.972Z,1000.5
2023-03-21T03:19:06.118Z,1000.4
2023-03-21T03:20:22.240Z,1000.4
2023-03-21T03:21:38.378Z,1000.4
2023-03-21T03:22:54.510Z,1000.4
2023-03-21T03:24:10.718Z,1000.4
2023-03-21T03:25:25.968Z,1000.4
2023-03-21T03:26:41.171Z,1000.4
2023-03-21T03:27:57.316Z,1000.4
2023-03-21T03:29:13.452Z,1000.4
2023-03-21T03:30:29.568Z,1000.4
2023-03-21T03:31:45.710Z,1000.4
2023-03-21T03:33:01.846Z,1000.4
2023-03-21T03:34:17.996Z,1000.4
2023-03-21T03:35:34.125Z,1000.4
2023-03-21T03:36:50.254Z,1000.4
2023-03-21T03:38:06.398Z,1000.4
2023-03-21T03:39:22.000Z,1000.4
2023-03-21T03:40:38.677Z,1000.4
2023-03-21T03:41:54.809Z,1000.4
2023-03-21T03:43:10.938Z,1000.4
2023-03-21T03:44:27.064Z,1000.4
2023-03-21T03:45:43.195Z,1000.3
2023-03-21T03:46:59.353Z,1000.3
2023-03-21T03:48:15.475Z,1000.3
2023-03-21T03:49:31.618Z,1000.3
2023-03-21T03:50:47.746Z,1000.3
2023-03-21T03:52:03.883Z,1000.4
2023-03-21T03:53:20.039Z,1000.3
2023-03-21T03:54:36.156Z,1000.3
2023-03-21T03:55:52.306Z,1000.3
2023-03-21T03:57:08.440Z,1000.3
2023-03-21T03:58:24.628Z,1000.3
2023-03-21T03:59:39.863Z,1000.2
2023-03-21T04:00:55.066Z,1000.3
2023-03-21T04:02:10.212Z,1000.3
2023-03-21T04:03:26.344Z,1000.3
2023-03-21T04:04:42.480Z,1000.3
2023-03-21T04:05:58.617Z,1000.3
2023-03-21T04:07:14.749Z,1000.3
2023-03-21T04:08:30.898Z,1000.3
2023-03-21T04:09:47.027Z,1000.3
2023-03-21T04:11:03.167Z,1000.3
2023-03-21T04:12:19.296Z,1000.3
2023-03-21T04:13:35.435Z,1000.3
2023-03-21T04:14:51.578Z,1000.2
2023-03-21T04:16:07.707Z,1000.3
2023-03-21T04:17:23.841Z,1000.2
2023-03-21T04:18:39.984Z,1000.2
2023-03-21T04:19:56.113Z,1000.2
2023-03-21T04:21:12.266Z,1000.2
2023-03-21T04:22:28.392Z,1000.2
2023-03-21T04:23:44.525Z,1000.2
2023-03-21T04:25:00.666Z,1000.1
2023-03-21T04:26:16.785Z,1000.1
2023-03-21T04:27:32.949Z,1000.1
2023-03-21T04:28:49.066Z,1000.1
2023-03-21T04:30:05.204Z,1000.1
2023-03-21T04:31:21.333Z,1000.1
2023-03-21T04:32:37.475Z,1000.1
2023-03-21T04:33:53.000Z,1000.1
2023-03-21T04:35:09.745Z,1000.1
2023-03-21T04:36:25.891Z,1000.1
2023-03-21T04:37:42.016Z,1000.2
2023-03-21T04:38:58.158Z,1000.2
2023-03-21T04:40:14.309Z,1000.1
2023-03-21T04:41:30.427Z,1000.1
2023-03-21T04:42:46.561Z,1000.1
2023-03-21T04:44:02.705Z,1000.1
2023-03-21T04:45:18.834Z,1000.1
2023-03-21T04:47:51.113Z,1000.1
2023-03-21T04:49:07.299Z,1000.1
2023-03-21T04:50:22.546Z,1000.1
2023-03-21T04:51:37.753Z,1000.1
2023-03-21T04:52:53.889Z,1000.1
2023-03-21T04:54:10.025Z,1000.1
2023-03-21T04:55:26.156Z,1000.1
2023-03-21T04:56:42.298Z,1000.1
2023-03-21T04:57:58.437Z,1000.1
2023-03-21T04:59:14.571Z,1000.1
2023-03-21T05:00:30.704Z,1000.1
2023-03-21T05:01:46.840Z,1000.1
2023-03-21T05:03:02.987Z,1000.1
2023-03-21T05:04:19.105Z,1000.1
2023-03-21T05:05:35.257Z,1000.1
2023-03-21T05:06:51.375Z,1000
2023-03-21T05:08:07.512Z,1000.1
2023-03-21T05:09:23.653Z,1000
2023-03-21T05:10:39.793Z,1000
2023-03-21T05:11:55.930Z,1000.1
2023-03-21T05:13:12.059Z,1000
2023-03-21T05:14:28.197Z,1000.1
2023-03-21T05:15:44.334Z,1000.1
2023-03-21T05:17:00.480Z,1000.1
2023-03-21T05:18:16.613Z,1000.1
2023-03-21T05:19:32.750Z,1000.1
2023-03-21T05:20:48.885Z,1000.1
2023-03-21T05:22:05.026Z,1000.1
2023-03-21T05:23:21.208Z,1000.1
2023-03-21T05:24:36.454Z,1000.1
2023-03-21T05:25:52.651Z,1000.1
2023-03-21T05:27:07.846Z,1000.1
2023-03-21T05:28:23.990Z,1000.1
2023-03-21T05:29:40.113Z,1000.1
2023-03-21T05:30:56.258Z,1000.1
2023-03-21T05:32:12.390Z,1000.2
2023-03-21T05:33:28.535Z,1000.1
2023-03-21T05:34:44.675Z,1000.1
2023-03-21T05:36:00.799Z,1000.2
2023-03-21T05:37:16.931Z,1000.2
2023-03-21T05:38:33.083Z,1000.2
2023-03-21T05:39:49.203Z,1000.2
2023-03-21T05:41:05.349Z,1000.2
2023-03-21T05:42:21.479Z,1000.1
2023-03-21T05:43:37.608Z,1000.2
2023-03-21T05:44:53.767Z,1000.2
2023-03-21T05:46:09.903Z,1000.2
2023-03-21T05:47:26.032Z,1000.2
2023-03-21T05:48:42.160Z,1000.1
2023-03-21T05:49:58.287Z,1000.2
2023-03-21T05:51:14.436Z,1000.1
2023-03-21T05:52:30.584Z,1000.2
2023-03-21T05:53:46.716Z,1000.1
2023-03-21T05:55:02.851Z,1000.1
2023-03-21T05:56:18.971Z,1000.2
2023-03-21T05:57:35.112Z,1000.1
2023-03-21T05:58:51.322Z,1000.1
2023-03-21T06:00:06.555Z,1000.2
2023-03-21T06:01:21.764Z,1000.2
2023-03-21T06:02:37.883Z,1000.2
2023-03-21T06:03:54.025Z,1000.1
2023-03-21T06:05:10.154Z,1000.2
2023-03-21T06:06:26.293Z,1000.1
2023-03-21T06:07:42.439Z,1000.1
2023-03-21T06:08:58.572Z,1000.3
2023-03-21T06:10:14.703Z,1000.2
2023-03-21T06:11:30.836Z,1000.2
2023-03-21T06:12:46.967Z,1000.2
2023-03-21T06:14:03.118Z,1000.1
2023-03-21T06:15:19.257Z,1000.2
2023-03-21T06:16:35.387Z,1000.2
2023-03-21T06:17:51.515Z,1000.1
2023-03-21T06:19:07.654Z,1000.2
2023-03-21T06:20:23.794Z,1000.2
2023-03-21T06:21:39.929Z,1000.2
2023-03-21T06:22:56.076Z,1000.2
2023-03-21T06:24:12.203Z,1000.2
2023-03-21T06:25:28.346Z,1000.2
2023-03-21T06:26:44.480Z,1000.2
2023-03-21T06:28:00.616Z,1000.2
2023-03-21T06:29:16.742Z,1000.2
2023-03-21T06:30:32.877Z,1000.2
2023-03-21T06:31:49.013Z,1000.2
2023-03-21T06:33:05.222Z,1000.1
2023-03-21T06:34:20.492Z,1000.2
2023-03-21T06:35:35.688Z,1000.2
2023-03-21T06:36:51.838Z,1000.2
2023-03-21T06:38:07.959Z,1000.2
2023-03-21T06:39:24.103Z,1000.2
2023-03-21T06:40:40.228Z,1000.2
2023-03-21T06:41:56.360Z,1000.1
2023-03-21T06:43:12.510Z,1000.1
2023-03-21T06:44:28.640Z,1000.1
2023-03-21T06:45:44.777Z,1000.2
2023-03-21T06:47:00.908Z,1000.1
2023-03-21T06:48:17.057Z,1000.1
2023-03-21T06:49:33.199Z,1000.1
2023-03-21T06:50:49.324Z,1000.1
2023-03-21T06:52:05.454Z,1000.1
2023-03-21T06:53:21.603Z,1000.1
2023-03-21T06:54:37.732Z,1000.1
2023-03-21T06:55:53.876Z,1000.1
2023-03-21T06:57:10.009Z,1000.1
2023-03-21T06:58:26.143Z,1000.1
2023-03-21T06:59:42.280Z,1000.1
2023-03-21T07:00:58.408Z,1000.1
2023-03-21T07:02:14.563Z,1000.1
2023-03-21T07:03:30.687Z,1000.1
2023-03-21T07:04:46.824Z,1000.1
2023-03-21T07:06:02.962Z,1000.1
2023-03-21T07:07:19.161Z,1000.1
2023-03-21T07:08:34.397Z,1000.1
2023-03-21T07:09:50.588Z,1000.1
2023-03-21T07:11:05.786Z,1000.1
2023-03-21T07:12:21.938Z,1000.1
2023-03-21T07:13:38.074Z,1000.1
2023-03-21T07:14:54.189Z,1000.1
2023-03-21T07:16:10.338Z,1000.1
2023-03-21T07:17:26.473Z,1000.1
2023-03-21T07:18:42.622Z,1000.1
2023-03-21T07:19:58.744Z,1000.1
2023-03-21T07:21:14.889Z,1000.1
2023-03-21T07:22:31.008Z,1000.1
2023-03-21T07:23:47.155Z,1000.1
2023-03-21T07:25:03.290Z,1000.1
2023-03-21T07:26:19.428Z,1000.1
2023-03-21T07:27:35.562Z,1000.1
2023-03-21T07:28:51.704Z,1000.1
2023-03-21T07:30:07.819Z,1000.1
2023-03-21T07:31:23.972Z,1000.1
2023-03-21T07:32:40.104Z,1000.2
2023-03-21T07:33:56.234Z,1000.2
2023-03-21T07:35:12.374Z,1000.1
2023-03-21T07:36:28.501Z,1000.1
2023-03-21T07:37:44.666Z,1000.1
2023-03-21T07:39:00.797Z,1000.1
2023-03-21T07:40:16.921Z,1000.1
2023-03-21T07:41:33.067Z,1000.1
2023-03-21T07:42:49.242Z,1000.1
2023-03-21T07:44:04.490Z,1000.1
2023-03-21T07:45:19.702Z,1000.1
2023-03-21T07:46:35.825Z,1000.1
2023-03-21T07:47:51.989Z,1000.1
2023-03-21T07:49:08.107Z,1000.1
2023-03-21T07:50:24.250Z,1000.1
2023-03-21T07:51:40.377Z,1000.1
2023-03-21T07:52:56.511Z,1000.1
2023-03-21T07:54:12.665Z,1000.1
2023-03-21T07:55:28.789Z,1000.1
2023-03-21T07:56:44.920Z,1000.1
2023-03-21T07:58:01.068Z,1000.1
2023-03-21T07:59:17.196Z,1000.2
2023-03-21T08:00:33.349Z,1000.2
2023-03-21T08:01:49.471Z,1000.2
2023-03-21T08:03:05.618Z,1000.2
2023-03-21T08:04:21.746Z,1000.2
2023-03-21T08:05:37.869Z,1000.2
2023-03-21T08:06:54.015Z,1000.2
2023-03-21T08:08:10.157Z,1000.2
2023-03-21T08:09:26.289Z,1000.2
2023-03-21T08:10:42.423Z,1000.2
2023-03-21T08:11:58.558Z,1000.2
2023-03-21T08:13:14.709Z,1000.2
2023-03-21T08:14:30.833Z,1000.2
2023-03-21T08:15:46.970Z,1000.2
2023-03-21T08:17:03.160Z,1000.2
2023-03-21T08:18:18.397Z,1000.2
2023-03-21T08:19:33.602Z,1000.1
2023-03-21T08:20:48.760Z,1000.1
2023-03-21T08:22:04.900Z,1000.1
2023-03-21T08:23:21.036Z,1000.1
2023-03-21T08:24:37.166Z,1000.1
2023-03-21T08:25:53.294Z,1000.1
2023-03-21T08:27:09.436Z,1000.2
2023-03-21T08:28:25.581Z,1000.1
2023-03-21T08:29:41.725Z,1000.1
2023-03-21T08:30:57.843Z,1000.1
2023-03-21T08:32:13.986Z,1000.1
2023-03-21T08:33:30.110Z,1000.1
2023-03-21T08:34:46.269Z,1000
2023-03-21T08:36:02.405Z,1000
2023-03-21T08:37:18.525Z,1000.1
2023-03-21T08:38:34.659Z,1000.1
2023-03-21T08:39:50.798Z,1000.1
2023-03-21T08:41:06.951Z,1000.1
2023-03-21T08:42:23.082Z,1000
2023-03-21T08:43:39.205Z,1000
2023-03-21T08:44:55.347Z,1000
2023-03-21T08:46:11.471Z,1000
2023-03-21T08:47:27.622Z,1000
2023-03-21T08:48:43.755Z,1000.1
2023-03-21T08:49:59.900Z,1000.1
2023-03-21T08:51:16.033Z,1000
2023-03-21T08:52:32.160Z,1000
2023-03-21T08:53:48.301Z,1000
2023-03-21T08:55:04.453Z,1000
2023-03-21T08:56:20.580Z,1000
2023-03-21T08:57:36.702Z,1000
2023-03-21T08:58:52.859Z,1000.1
2023-03-21T09:00:08.988Z,1000
2023-03-21T09:01:25.127Z,1000
2023-03-21T09:02:41.264Z,1000
2023-03-21T09:03:57.399Z,1000
2023-03-21T09:05:13.518Z,1000
2023-03-21T09:06:29.681Z,1000
2023-03-21T09:07:45.862Z,1000
2023-03-21T09:09:01.100Z,1000
2023-03-21T09:10:16.316Z,1000
2023-03-21T09:11:32.441Z,1000
2023-03-21T09:12:48.583Z,1000
2023-03-21T09:14:04.709Z,1000
2023-03-21T09:15:20.849Z,1000
2023-03-21T09:16:36.982Z,1000.1
2023-03-21T09:17:53.127Z,1000
2023-03-21T09:19:09.266Z,1000.1
2023-03-21T09:20:25.389Z,1000
2023-03-21T09:21:41.532Z,1000
2023-03-21T09:22:57.664Z,1000
2023-03-21T09:24:13.812Z,1000.1
2023-03-21T09:25:29.945Z,1000.1
2023-03-21T09:26:46.066Z,1000
2023-03-21T09:28:02.213Z,1000
2023-03-21T09:29:18.352Z,1000
2023-03-21T09:30:34.488Z,1000
2023-03-21T09:31:50.624Z,1000.1
2023-03-21T09:33:06.744Z,1000.1
2023-03-21T09:34:22.890Z,1000
2023-03-21T09:35:39.029Z,1000
2023-03-21T09:36:55.178Z,1000.1
2023-03-21T09:38:11.292Z,1000.1
2023-03-21T09:39:27.431Z,1000
2023-03-21T09:40:43.558Z,1000.1
2023-03-21T09:41:59.781Z,1000.1
2023-03-21T09:43:15.006Z,1000
2023-03-21T09:44:31.202Z,1000
2023-03-21T09:45:46.419Z,1000
2023-03-21T09:47:02.548Z,1000
2023-03-21T09:48:18.671Z,1000
2023-03-21T09:49:34.812Z,1000
2023-03-21T09:50:50.953Z,1000
2023-03-21T09:52:07.083Z,999.9
2023-03-21T09:53:23.218Z,1000
2023-03-21T09:54:39.366Z,1000
2023-03-21T09:55:55.485Z,1000
2023-03-21T09:57:11.623Z,1000
2023-03-21T09:58:27.769Z,1000
2023-03-21T09:59:43.909Z,1000
2023-03-21T10:01:00.032Z,1000
2023-03-21T10:02:16.171Z,1000
2023-03-21T10:03:32.305Z,1000
2023-03-21T10:04:48.455Z,1000
2023-03-21T10:06:04.581Z,1000
2023-03-21T10:07:20.730Z,1000
2023-03-21T10:08:36.856Z,1000
2023-03-21T10:09:52.991Z,1000
2023-03-21T10:11:09.134Z,1000
2023-03-21T10:12:25.262Z,1000
2023-03-21T10:13:41.401Z,999.9
2023-03-21T10:14:57.528Z,999.9
2023-03-21T10:16:13.664Z,999.9
2023-03-21T10:17:29.869Z,999.9
2023-03-21T10:18:45.114Z,999.9
2023-03-21T10:20:00.330Z,1000
2023-03-21T10:21:16.458Z,999.9
2023-03-21T10:22:32.591Z,999.9
2023-03-21T10:23:48.732Z,999.9
2023-03-21T10:25:04.856Z,999.9
2023-03-21T10:26:21.001Z,999.9
2023-03-21T10:27:37.137Z,999.9
2023-03-21T10:28:53.277Z,999.9
2023-03-21T10:30:09.422Z,999.9
2023-03-21T10:31:25.551Z,999.9
2023-03-21T10:32:41.682Z,999.9
2023-03-21T10:33:57.836Z,999.8
2023-03-21T10:35:13.963Z,999.9
2023-03-21T10:36:30.089Z,999.8
2023-03-21T10:37:46.217Z,999.9
2023-03-21T10:39:02.360Z,999.9
2023-03-21T10:40:18.515Z,999.8
2023-03-21T10:41:34.646Z,999.8
2023-03-21T10:42:50.772Z,999.8
2023-03-21T10:44:06.914Z,999.8
2023-03-21T10:45:23.039Z,999.8
2023-03-21T10:46:39.192Z,999.7
2023-03-21T10:47:55.325Z,999.7
2023-03-21T10:49:11.465Z,999.7
2023-03-21T10:50:27.581Z,999.7
2023-03-21T10:51:43.787Z,999.7
2023-03-21T10:54:15.227Z,999.6
2023-03-21T10:55:30.446Z,999.6
2023-03-21T10:56:46.591Z,999.6
2023-03-21T10:58:02.717Z,999.6
2023-03-21T10:59:18.845Z,999.6
2023-03-21T11:00:34.991Z,999.6
2023-03-21T11:01:51.118Z,999.6
2023-03-21T11:03:07.269Z,999.6
2023-03-21T11:04:23.404Z,999.6
2023-03-21T11:05:39.541Z,999.7
2023-03-21T11:06:55.672Z,999.6
2023-03-21T11:08:11.809Z,999.7
2023-03-21T11:09:27.952Z,999.6
2023-03-21T11:10:44.074Z,999.7
2023-03-21T11:12:00.218Z,999.6
2023-03-21T11:13:16.346Z,999.6
2023-03-21T11:14:32.480Z,999.6
2023-03-21T11:15:48.623Z,999.6
2023-03-21T11:17:04.769Z,999.6
2023-03-21T11:18:20.908Z,999.6
2023-03-21T11:19:37.024Z,999.5
2023-03-21T11:20:53.171Z,999.6
2023-03-21T11:22:09.314Z,999.6
2023-03-21T11:23:25.440Z,999.6
2023-03-21T11:24:41.577Z,999.6
2023-03-21T11:25:57.707Z,999.5
2023-03-21T11:27:13.912Z,999.5
2023-03-21T11:28:29.152Z,999.5
2023-03-21T11:29:44.347Z,999.5
2023-03-21T11:31:00.494Z,999.5
2023-03-21T11:32:16.649Z,999.5
2023-03-21T11:33:32.779Z,999.5
2023-03-21T11:34:48.914Z,999.5
2023-03-21T11:36:05.043Z,999.5
2023-03-21T11:37:21.172Z,999.5
2023-03-21T11:38:37.330Z,999.4
2023-03-21T11:39:53.455Z,999.4
2023-03-21T11:41:09.593Z,999.4
2023-03-21T11:42:25.722Z,999.4
2023-03-21T11:43:41.848Z,999.4
2023-03-21T11:44:57.996Z,999.4
2023-03-21T11:46:14.130Z,999.4
2023-03-21T11:47:30.263Z,999.4
2023-03-21T11:48:46.411Z,999.3
2023-03-21T11:50:02.542Z,999.4
2023-03-21T11:51:18.685Z,999.3
2023-03-21T11:52:34.816Z,999.3
2023-03-21T11:53:50.956Z,999.3
2023-03-21T11:55:07.078Z,999.2
2023-03-21T11:56:23.210Z,999.2
2023-03-21T11:57:39.366Z,999.2
2023-03-21T11:58:55.491Z,999.2
2023-03-21T12:00:11.621Z,999.2
2023-03-21T12:01:27.824Z,999.2
2023-03-21T12:02:43.050Z,999.1
2023-03-21T12:03:58.262Z,999.1
2023-03-21T12:05:13.425Z,999.1
2023-03-21T12:06:29.565Z,999.1
2023-03-21T12:07:45.705Z,999.1
2023-03-21T12:09:01.827Z,999.1
2023-03-21T12:10:17.965Z,999
2023-03-21T12:11:34.090Z,999
2023-03-21T12:12:50.236Z,999
2023-03-21T12:14:06.385Z,999
2023-03-21T12:15:22.510Z,999
2023-03-21T12:16:38.634Z,999
2023-03-21T12:17:54.783Z,999
2023-03-21T12:19:10.919Z,998.9
2023-03-21T12:20:27.046Z,998.9
2023-03-21T12:21:43.196Z,998.9
2023-03-21T12:22:59.316Z,998.9
2023-03-21T12:24:15.453Z,998.9
2023-03-21T12:25:31.607Z,998.9
2023-03-21T12:26:47.730Z,998.8
2023-03-21T12:28:03.859Z,998.8
2023-03-21T12:29:20.003Z,998.8
2023-03-21T12:30:36.143Z,998.8
2023-03-21T12:31:52.287Z,998.8
2023-03-21T12:33:08.423Z,998.8
2023-03-21T12:34:24.548Z,998.7
2023-03-21T12:35:40.681Z,998.8
2023-03-21T12:36:56.818Z,998.7
2023-03-21T12:38:12.967Z,998.7
2023-03-21T12:39:29.100Z,998.7
2023-03-21T12:40:45.233Z,998.6
2023-03-21T12:42:01.367Z,998.7
2023-03-21T12:43:17.495Z,998.6
2023-03-21T12:44:33.641Z,998.6
2023-03-21T12:45:49.774Z,998.6
2023-03-21T12:47:05.901Z,998.6
2023-03-21T12:48:22.045Z,998.6
2023-03-21T12:49:38.167Z,998.6
2023-03-21T12:50:54.323Z,998.6
2023-03-21T12:52:10.507Z,998.6
2023-03-21T12:53:25.776Z,998.6
2023-03-21T12:54:40.972Z,998.6
2023-03-21T12:55:57.090Z,998.6
2023-03-21T12:57:13.239Z,998.6
2023-03-21T12:58:29.367Z,998.6
2023-03-21T12:59:45.493Z,998.6
2023-03-21T13:01:01.643Z,998.5
2023-03-21T13:02:17.776Z,998.5
2023-03-21T13:03:33.905Z,998.5
2023-03-21T13:04:50.045Z,998.5
2023-03-21T13:06:06.170Z,998.6
2023-03-21T13:07:22.336Z,998.5
2023-03-21T13:08:38.464Z,998.5
2023-03-21T13:09:54.604Z,998.4
2023-03-21T13:11:10.727Z,998.4
2023-03-21T13:12:26.867Z,998.4
2023-03-21T13:13:43.006Z,998.4
2023-03-21T13:14:59.144Z,998.4
2023-03-21T13:16:15.268Z,998.4
2023-03-21T13:17:31.408Z,998.4
2023-03-21T13:18:47.536Z,998.3
2023-03-21T13:20:03.683Z,998.4
2023-03-21T13:21:19.823Z,998.3
2023-03-21T13:22:35.950Z,998.3
2023-03-21T13:23:52.096Z,998.3
2023-03-21T13:25:08.226Z,998.3
2023-03-21T13:26:24.423Z,998.3
2023-03-21T13:27:39.665Z,998.2
2023-03-21T13:28:54.881Z,998.2
2023-03-21T13:30:11.023Z,998.2
2023-03-21T13:31:27.147Z,998.2
2023-03-21T13:32:43.291Z,998.2
2023-03-21T13:33:59.412Z,998.2
2023-03-21T13:35:15.552Z,998.2
2023-03-21T13:36:31.707Z,998.2
2023-03-21T13:37:47.844Z,998.2
2023-03-21T13:39:03.968Z,998.1
2023-03-21T13:40:20.095Z,998.1
2023-03-21T13:41:36.225Z,998.1
2023-03-21T13:42:52.380Z,998.2
2023-03-21T13:44:08.515Z,998.2
2023-03-21T13:45:24.652Z,998.1
2023-03-21T13:46:40.775Z,998.1
2023-03-21T13:47:56.906Z,998.1
2023-03-21T13:49:13.062Z,998.1
2023-03-21T13:50:29.196Z,998.1
2023-03-21T13:51:45.335Z,998.1
2023-03-21T13:53:01.457Z,998.1
2023-03-21T13:54:17.600Z,998.1
2023-03-21T13:55:33.739Z,998.1
2023-03-21T13:56:49.873Z,998.1
2023-03-21T13:58:06.010Z,998
2023-03-21T13:59:22.146Z,998.1
2023-03-21T14:00:38.331Z,998.1
2023-03-21T14:01:53.577Z,998
2023-03-21T14:03:09.756Z,998
2023-03-21T14:04:24.970Z,998
2023-03-21T14:05:41.112Z,998
2023-03-21T14:06:57.244Z,998
2023-03-21T14:08:13.388Z,998
2023-03-21T14:09:29.515Z,998
2023-03-21T14:12:01.800Z,998
2023-03-21T14:13:17.932Z,997.9
2023-03-21T14:14:34.067Z,998
2023-03-21T14:15:50.188Z,997.9
2023-03-21T14:17:06.321Z,997.9
2023-03-21T14:18:22.485Z,997.9
2023-03-21T14:19:38.615Z,997.9
2023-03-21T14:20:54.732Z,997.9
2023-03-21T14:22:10.870Z,997.9
2023-03-21T14:23:27.017Z,997.9
2023-03-21T14:24:43.163Z,997.9
2023-03-21T14:25:59.299Z,997.8
2023-03-21T14:27:15.422Z,997.9
2023-03-21T14:28:31.558Z,997.8
2023-03-21T14:29:47.689Z,997.9
2023-03-21T14:31:03.838Z,997.8
2023-03-21T14:32:19.963Z,997.8
2023-03-21T14:33:36.095Z,997.9
2023-03-21T14:34:52.238Z,997.8
2023-03-21T14:36:08.423Z,997.9
2023-03-21T14:37:23.669Z,997.9
2023-03-21T14:38:38.873Z,997.8
2023-03-21T14:39:55.010Z,997.8
2023-03-21T14:41:11.153Z,997.9
2023-03-21T14:42:27.282Z,997.9
2023-03-21T14:43:43.414Z,997.9
2023-03-21T14:44:59.554Z,997.8
2023-03-21T14:46:15.686Z,997.9
2023-03-21T14:47:31.840Z,997.9
2023-03-21T14:48:47.977Z,997.8
2023-03-21T14:50:04.100Z,997.8
2023-03-21T14:51:20.244Z,997.8
2023-03-21T14:52:36.373Z,997.8
2023-03-21T14:53:52.521Z,997.8
2023-03-21T14:55:08.644Z,997.8
2023-03-21T14:56:24.776Z,997.8
2023-03-21T14:57:40.927Z,997.8
2023-03-21T14:58:57.050Z,997.8
2023-03-21T15:00:13.203Z,997.8
2023-03-21T15:01:29.335Z,997.8
2023-03-21T15:02:45.462Z,997.8
2023-03-21T15:04:01.599Z,997.8
2023-03-21T15:05:17.737Z,997.8
2023-03-21T15:06:33.874Z,997.8
2023-03-21T15:07:50.004Z,997.8
2023-03-21T15:09:06.143Z,997.7
2023-03-21T15:10:22.332Z,997.7
2023-03-21T15:11:37.593Z,997.7
2023-03-21T15:12:52.812Z,997.7
2023-03-21T15:14:07.960Z,997.7
2023-03-21T15:15:24.104Z,997.6
2023-03-21T15:16:40.244Z,997.7
2023-03-21T15:17:56.369Z,997.6
2023-03-21T15:19:12.512Z,997.6
2023-03-21T15:20:28.631Z,997.6
2023-03-21T15:21:44.780Z,997.6
2023-03-21T15:23:00.913Z,997.6
2023-03-21T15:24:17.044Z,997.6
2023-03-21T15:25:33.191Z,997.6
2023-03-21T15:26:49.319Z,997.6
2023-03-21T15:28:05.472Z,997.6
2023-03-21T15:29:21.598Z,997.5
2023-03-21T15:30:37.730Z,997.6
2023-03-21T15:31:53.859Z,997.5
2023-03-21T15:33:09.992Z,997.5
2023-03-21T15:34:26.137Z,997.5
2023-03-21T15:35:42.289Z,997.6
2023-03-21T15:36:58.420Z,997.5
2023-03-21T15:38:14.536Z,997.6
2023-03-21T15:39:30.689Z,997.5
2023-03-21T15:40:46.835Z,997.5
2023-03-21T15:42:02.967Z,997.5
2023-03-21T15:43:19.087Z,997.5
2023-03-21T15:44:35.218Z,997.6
2023-03-21T15:45:51.370Z,997.6
2023-03-21T15:47:07.507Z,997.6
2023-03-21T15:48:23.642Z,997.6
2023-03-21T15:49:39.779Z,997.5
2023-03-21T15:50:55.902Z,997.6
2023-03-21T15:52:12.046Z,997.6
2023-03-21T15:53:28.193Z,997.5
2023-03-21T15:54:44.328Z,997.5
2023-03-21T15:56:00.455Z,997.5
2023-03-21T15:57:16.586Z,997.5
2023-03-21T15:58:32.730Z,997.5
2023-03-21T15:59:48.872Z,997.5
2023-03-21T16:01:05.065Z,997.5
2023-03-21T16:02:20.311Z,997.5
2023-03-21T16:03:35.514Z,997.5
2023-03-21T16:04:51.637Z,997.5
2023-03-21T16:06:07.782Z,997.5
2023-03-21T16:07:23.901Z,997.5
2023-03-21T16:08:40.046Z,997.4
2023-03-21T16:09:56.189Z,997.5
2023-03-21T16:11:12.315Z,997.5
2023-03-21T16:12:28.456Z,997.5